createdAt,value
2023-04-13T00:01:22.461Z,6.40
2023-04-13T00:03:49.920Z,6.30
2023-04-13T00:06:16.780Z,6.30
2023-04-13T00:08:45.135Z,6.30
2023-04-13T00:11:13.182Z,6.20
2023-04-13T00:13:43.119Z,6.20
2023-04-13T00:16:11.050Z,6.20
2023-04-13T00:18:38.053Z,6.20
2023-04-13T00:21:05.050Z,6.10
2023-04-13T00:23:32.103Z,6.10
2023-04-13T00:26:01.714Z,6.00
2023-04-13T00:28:30.218Z,6.10
2023-04-13T00:30:57.522Z,6.20
2023-04-13T00:33:24.554Z,6.20
2023-04-13T00:35:51.778Z,6.10
2023-04-13T00:38:18.488Z,6.10
2023-04-13T00:40:45.938Z,6.10
2023-04-13T00:43:12.656Z,6.00
2023-04-13T00:45:39.705Z,6.00
2023-04-13T00:48:10.891Z,6.10
2023-04-13T00:50:39.022Z,6.10
2023-04-13T00:53:10.490Z,6.10
2023-04-13T00:55:39.556Z,6.10
2023-04-13T00:58:06.771Z,6.10
2023-04-13T01:00:33.531Z,6.10
2023-04-13T01:03:01.739Z,6.00
2023-04-13T01:05:35.637Z,6.00
2023-04-13T01:08:15.154Z,5.90
2023-04-13T01:11:00.309Z,5.90
2023-04-13T01:13:52.775Z,5.80
2023-04-13T01:16:23.573Z,5.80
2023-04-13T01:18:55.861Z,5.80
2023-04-13T01:21:26.182Z,5.80
2023-04-13T01:24:10.997Z,5.70
2023-04-13T01:27:11.536Z,5.80
2023-04-13T01:29:39.337Z,5.80
2023-04-13T01:32:07.431Z,5.80
2023-04-13T01:34:34.660Z,5.80
2023-04-13T01:37:04.635Z,5.80
2023-04-13T01:39:33.207Z,5.70
2023-04-13T01:42:00.391Z,5.70
2023-04-13T01:44:32.290Z,5.70
2023-04-13T01:47:15.691Z,5.70
2023-04-13T01:50:11.149Z,5.70
2023-04-13T01:52:41.109Z,5.70
2023-04-13T01:55:08.374Z,5.70
2023-04-13T01:57:37.150Z,5.70
2023-04-13T02:00:10.554Z,5.70
2023-04-13T02:02:38.133Z,5.80
2023-04-13T02:05:05.282Z,5.80
2023-04-13T02:07:33.095Z,5.80
2023-04-13T02:09:59.855Z,5.80
2023-04-13T02:12:26.761Z,5.80
2023-04-13T02:14:53.416Z,5.70
2023-04-13T02:17:20.163Z,5.70
2023-04-13T02:19:46.872Z,5.70
2023-04-13T02:22:13.615Z,5.70
2023-04-13T02:24:40.496Z,5.70
2023-04-13T02:27:07.278Z,5.70
2023-04-13T02:29:34.471Z,5.70
2023-04-13T02:32:01.516Z,5.70
2023-04-13T02:34:28.284Z,5.60
2023-04-13T02:36:55.731Z,5.70
2023-04-13T02:39:22.473Z,5.70
2023-04-13T02:41:49.221Z,5.60
2023-04-13T02:44:15.918Z,5.60
2023-04-13T02:46:42.634Z,5.70
2023-04-13T02:49:09.373Z,5.70
2023-04-13T02:51:36.343Z,5.60
2023-04-13T02:54:03.938Z,5.60
2023-04-13T02:56:30.943Z,5.60
2023-04-13T02:58:59.130Z,5.60
2023-04-13T03:01:25.891Z,5.60
2023-04-13T03:03:52.605Z,5.60
2023-04-13T03:06:19.319Z,5.60
2023-04-13T03:08:46.376Z,5.50
2023-04-13T03:11:13.109Z,5.60
2023-04-13T03:13:39.828Z,5.60
2023-04-13T03:16:06.889Z,5.60
2023-04-13T03:18:33.568Z,5.60
2023-04-13T03:21:01.549Z,5.60
2023-04-13T03:23:28.289Z,5.60
2023-04-13T03:25:55.013Z,5.70
2023-04-13T03:28:21.975Z,5.60
2023-04-13T03:30:48.916Z,5.60
2023-04-13T03:33:15.707Z,5.60
2023-04-13T03:35:42.488Z,5.60
2023-04-13T03:38:09.577Z,5.60
2023-04-13T03:40:36.309Z,5.50
2023-04-13T03:43:03.050Z,5.50
2023-04-13T03:45:29.762Z,5.50
2023-04-13T03:47:56.642Z,5.50
2023-04-13T03:50:23.653Z,5.50
2023-04-13T03:52:50.595Z,5.50
2023-04-13T03:55:18.640Z,5.40
2023-04-13T03:57:45.481Z,5.40
2023-04-13T04:00:14.397Z,5.40
2023-04-13T04:02:42.225Z,5.30
2023-04-13T04:05:10.359Z,5.40
2023-04-13T04:07:37.112Z,5.30
2023-04-13T04:10:04.753Z,5.40
2023-04-13T04:12:32.362Z,5.40
2023-04-13T04:14:59.225Z,5.40
2023-04-13T04:17:26.306Z,5.40
2023-04-13T04:19:53.147Z,5.40
2023-04-13T04:22:19.792Z,5.40
2023-04-13T04:24:46.522Z,5.40
2023-04-13T04:27:14.549Z,5.40
2023-04-13T04:29:41.451Z,5.40
2023-04-13T04:32:11.092Z,5.40
2023-04-13T04:34:38.895Z,5.40
2023-04-13T04:37:19.647Z,5.40
2023-04-13T04:39:47.638Z,5.40
2023-04-13T04:42:14.815Z,5.30
2023-04-13T04:44:44.840Z,5.40
2023-04-13T04:47:17.023Z,5.40
2023-04-13T04:49:44.078Z,5.40
2023-04-13T04:52:12.742Z,5.40
2023-04-13T04:54:42.826Z,5.40
2023-04-13T04:57:10.834Z,5.30
2023-04-13T04:59:41.179Z,5.30
2023-04-13T05:02:08.379Z,5.30
2023-04-13T05:04:35.656Z,5.30
2023-04-13T05:07:06.361Z,5.30
2023-04-13T05:09:37.214Z,5.30
2023-04-13T05:12:04.705Z,5.30
2023-04-13T05:14:31.591Z,5.40
2023-04-13T05:16:58.674Z,5.30
2023-04-13T05:19:27.452Z,5.40
2023-04-13T05:21:56.367Z,5.40
2023-04-13T05:24:23.584Z,5.30
2023-04-13T05:26:56.294Z,5.40
2023-04-13T05:29:24.252Z,5.40
2023-04-13T05:31:52.131Z,5.40
2023-04-13T05:34:21.761Z,5.40
2023-04-13T05:36:48.645Z,5.40
2023-04-13T05:39:16.230Z,5.40
2023-04-13T05:41:43.100Z,5.30
2023-04-13T05:44:10.031Z,5.40
2023-04-13T05:46:37.142Z,5.40
2023-04-13T05:49:03.954Z,5.40
2023-04-13T05:51:31.990Z,5.40
2023-04-13T05:53:59.456Z,5.40
2023-04-13T05:56:26.679Z,5.40
2023-04-13T05:58:53.930Z,5.40
2023-04-13T06:01:20.814Z,5.50
2023-04-13T06:03:48.097Z,5.50
2023-04-13T06:06:17.528Z,5.40
2023-04-13T06:09:20.238Z,5.50
2023-04-13T06:11:47.100Z,5.50
2023-04-13T06:14:13.772Z,5.60
2023-04-13T06:16:40.682Z,5.60
2023-04-13T06:19:07.625Z,5.60
2023-04-13T06:21:34.802Z,5.70
2023-04-13T06:24:01.622Z,5.70
2023-04-13T06:26:28.954Z,5.70
2023-04-13T06:28:57.258Z,5.70
2023-04-13T06:31:27.725Z,5.70
2023-04-13T06:33:54.853Z,5.70
2023-04-13T06:36:22.041Z,5.80
2023-04-13T06:38:48.813Z,5.80
2023-04-13T06:41:15.652Z,5.80
2023-04-13T06:43:42.538Z,5.80
2023-04-13T06:46:09.324Z,5.80
2023-04-13T06:48:36.084Z,5.80
2023-04-13T06:51:02.825Z,5.80
2023-04-13T06:53:29.686Z,5.80
2023-04-13T06:55:56.645Z,5.90
2023-04-13T06:58:23.698Z,5.90
2023-04-13T07:00:50.893Z,6.00
2023-04-13T07:03:17.859Z,6.00
2023-04-13T07:05:45.404Z,6.00
2023-04-13T07:08:13.642Z,6.00
2023-04-13T07:10:41.145Z,6.10
2023-04-13T07:13:07.974Z,6.10
2023-04-13T07:15:37.722Z,6.10
2023-04-13T07:18:04.826Z,6.10
2023-04-13T07:20:31.652Z,6.10
2023-04-13T07:22:58.518Z,6.10
2023-04-13T07:25:25.553Z,6.10
2023-04-13T07:27:52.333Z,6.10
2023-04-13T07:30:19.331Z,6.20
2023-04-13T07:32:46.035Z,6.10
2023-04-13T07:35:12.896Z,6.20
2023-04-13T07:37:40.659Z,6.30
2023-04-13T07:40:08.329Z,6.30
2023-04-13T07:42:35.956Z,6.20
2023-04-13T07:45:02.813Z,6.30
2023-04-13T07:47:29.585Z,6.20
2023-04-13T07:49:56.734Z,6.30
2023-04-13T07:52:23.410Z,6.30
2023-04-13T07:54:50.130Z,6.30
2023-04-13T07:57:21.125Z,6.30
2023-04-13T07:59:48.251Z,6.40
2023-04-13T08:02:17.090Z,6.50
2023-04-13T08:04:44.927Z,6.50
2023-04-13T08:07:12.322Z,6.60
2023-04-13T08:09:40.792Z,6.70
2023-04-13T08:12:08.764Z,6.70
2023-04-13T08:14:35.557Z,6.70
2023-04-13T08:17:04.425Z,6.80
2023-04-13T08:19:31.417Z,6.80
2023-04-13T08:22:01.281Z,6.90
2023-04-13T08:24:28.893Z,7.00
2023-04-13T08:26:58.214Z,7.00
2023-04-13T08:29:25.765Z,7.20
2023-04-13T08:31:54.379Z,7.30
2023-04-13T08:34:21.616Z,7.30
2023-04-13T08:36:48.589Z,7.30
2023-04-13T08:39:15.282Z,7.30
2023-04-13T08:41:47.305Z,7.30
2023-04-13T08:44:15.708Z,7.30
2023-04-13T08:46:45.283Z,7.40
2023-04-13T08:49:12.707Z,7.50
2023-04-13T08:51:42.034Z,7.50
2023-04-13T08:54:08.921Z,7.50
2023-04-13T08:56:45.357Z,7.40
2023-04-13T08:59:15.487Z,7.40
2023-04-13T09:01:46.566Z,7.30
2023-04-13T09:04:18.030Z,7.30
2023-04-13T09:06:47.807Z,7.20
2023-04-13T09:09:15.043Z,7.10
2023-04-13T09:11:43.385Z,7.00
2023-04-13T09:14:10.551Z,7.00
2023-04-13T09:16:42.885Z,7.10
2023-04-13T09:19:10.305Z,7.20
2023-04-13T09:21:44.818Z,7.20
2023-04-13T09:24:12.593Z,7.20
2023-04-13T09:26:44.153Z,7.30
2023-04-13T09:29:14.625Z,7.40
2023-04-13T09:31:43.563Z,7.60
2023-04-13T09:34:11.983Z,8.00
2023-04-13T09:36:49.580Z,8.50
2023-04-13T09:39:28.379Z,8.50
2023-04-13T09:41:55.723Z,8.40
2023-04-13T09:44:31.003Z,8.40
2023-04-13T09:47:02.267Z,8.40
2023-04-13T09:49:42.021Z,8.40
2023-04-13T09:52:25.491Z,8.50
2023-04-13T09:54:53.737Z,8.60
2023-04-13T09:57:31.357Z,8.60
2023-04-13T10:00:01.830Z,8.60
2023-04-13T10:02:29.197Z,8.40
2023-04-13T10:04:56.563Z,8.30
2023-04-13T10:07:26.845Z,8.20
2023-04-13T10:09:54.564Z,8.20
2023-04-13T10:12:23.255Z,8.30
2023-04-13T10:14:55.284Z,8.30
2023-04-13T10:18:01.525Z,8.40
2023-04-13T10:20:30.307Z,8.40
2023-04-13T10:22:58.058Z,8.40
2023-04-13T10:25:33.318Z,8.40
2023-04-13T10:28:00.927Z,8.40
2023-04-13T10:30:28.527Z,8.50
2023-04-13T10:33:05.587Z,8.50
2023-04-13T10:35:37.247Z,8.50
2023-04-13T10:38:04.767Z,8.50
2023-04-13T10:40:46.096Z,8.50
2023-04-13T10:43:12.884Z,8.50
2023-04-13T10:45:39.669Z,8.50
2023-04-13T10:48:07.654Z,8.60
2023-04-13T10:50:34.709Z,8.60
2023-04-13T10:53:04.753Z,8.60
2023-04-13T10:55:35.666Z,8.60
2023-04-13T10:58:13.177Z,8.50
2023-04-13T11:00:46.138Z,8.50
2023-04-13T11:03:19.049Z,8.60
2023-04-13T11:05:47.566Z,8.80
2023-04-13T11:08:21.879Z,8.80
2023-04-13T11:10:55.975Z,8.90
2023-04-13T11:13:28.895Z,8.90
2023-04-13T11:16:13.997Z,8.90
2023-04-13T11:18:41.388Z,9.00
2023-04-13T11:21:17.703Z,8.90
2023-04-13T11:23:53.904Z,8.90
2023-04-13T11:26:40.473Z,8.90
2023-04-13T11:29:18.654Z,8.90
2023-04-13T11:31:45.407Z,9.10
2023-04-13T11:34:13.086Z,9.10
2023-04-13T11:36:41.055Z,9.20
2023-04-13T11:39:10.535Z,9.20
2023-04-13T11:41:41.302Z,9.20
2023-04-13T11:44:08.107Z,9.20
2023-04-13T11:46:35.049Z,9.00
2023-04-13T11:49:02.307Z,8.80
2023-04-13T11:51:29.378Z,8.60
2023-04-13T11:53:57.304Z,8.60
2023-04-13T11:56:25.834Z,8.40
2023-04-13T11:58:53.401Z,8.30
2023-04-13T12:01:26.968Z,8.30
2023-04-13T12:04:12.793Z,8.40
2023-04-13T12:06:53.257Z,8.60
2023-04-13T12:09:23.374Z,8.90
2023-04-13T12:12:20.593Z,9.10
2023-04-13T12:15:12.279Z,9.40
2023-04-13T12:17:49.414Z,9.50
2023-04-13T12:20:20.332Z,9.70
2023-04-13T12:22:57.553Z,9.70
2023-04-13T12:28:00.392Z,9.50
2023-04-13T12:30:27.938Z,9.50
2023-04-13T12:32:56.398Z,9.60
2023-04-13T12:35:23.394Z,9.70
2023-04-13T12:37:50.733Z,9.70
2023-04-13T12:40:18.378Z,9.50
2023-04-13T12:42:46.845Z,9.50
2023-04-13T12:45:14.610Z,9.70
2023-04-13T12:47:41.704Z,9.80
2023-04-13T12:50:10.835Z,9.90
2023-04-13T12:52:40.911Z,9.90
2023-04-13T12:55:08.600Z,9.70
2023-04-13T12:57:35.382Z,9.70
2023-04-13T13:00:02.088Z,9.70
2023-04-13T13:02:32.394Z,9.70
2023-04-13T13:04:59.565Z,9.70
2023-04-13T13:07:27.249Z,9.80
2023-04-13T13:09:54.058Z,9.90
2023-04-13T13:12:20.717Z,9.80
2023-04-13T13:14:47.440Z,9.80
2023-04-13T13:17:14.122Z,9.80
2023-04-13T13:19:40.926Z,9.70
2023-04-13T13:22:07.610Z,9.80
2023-04-13T13:24:34.477Z,9.70
2023-04-13T13:27:37.485Z,9.70
2023-04-13T13:29:47.796Z,9.80
2023-04-13T13:32:14.655Z,9.90
2023-04-13T13:34:41.448Z,9.90
2023-04-13T13:37:08.834Z,9.90
2023-04-13T13:39:37.336Z,9.90
2023-04-13T13:42:04.652Z,9.90
2023-04-13T13:44:31.618Z,9.80
2023-04-13T13:46:58.513Z,9.80
2023-04-13T13:49:25.368Z,9.50
2023-04-13T13:51:52.463Z,9.40
2023-04-13T13:54:20.495Z,9.40
2023-04-13T13:56:47.223Z,9.40
2023-04-13T13:59:14.062Z,9.40
2023-04-13T14:01:41.309Z,9.40
2023-04-13T14:04:08.198Z,9.30
2023-04-13T14:06:35.330Z,9.30
2023-04-13T14:09:02.448Z,9.40
2023-04-13T14:11:29.795Z,9.40
2023-04-13T14:13:56.529Z,9.40
2023-04-13T14:16:23.808Z,9.40
2023-04-13T14:18:50.638Z,9.20
2023-04-13T14:21:21.417Z,9.20
2023-04-13T14:23:49.808Z,9.20
2023-04-13T14:26:16.965Z,9.10
2023-04-13T14:28:44.282Z,9.00
2023-04-13T14:31:11.315Z,8.90
2023-04-13T14:33:38.619Z,9.00
2023-04-13T14:36:05.580Z,9.00
2023-04-13T14:38:34.988Z,9.10
2023-04-13T14:41:01.760Z,9.10
2023-04-13T14:43:28.931Z,9.00
2023-04-13T14:45:55.645Z,8.70
2023-04-13T14:48:23.425Z,8.60
2023-04-13T14:50:50.302Z,8.50
2023-04-13T14:53:17.733Z,8.40
2023-04-13T14:55:46.100Z,8.30
2023-04-13T14:58:13.025Z,8.20
2023-04-13T15:00:40.145Z,8.20
2023-04-13T15:03:08.318Z,8.20
2023-04-13T15:05:46.283Z,8.10
2023-04-13T15:08:15.746Z,8.20
2023-04-13T15:10:42.920Z,8.10
2023-04-13T15:13:09.836Z,8.20
2023-04-13T15:15:38.144Z,8.20
2023-04-13T15:18:05.804Z,8.20
2023-04-13T15:20:32.733Z,8.30
2023-04-13T15:22:59.541Z,8.20
2023-04-13T15:25:26.693Z,8.20
2023-04-13T15:27:58.199Z,8.20
2023-04-13T15:30:29.622Z,8.20
2023-04-13T15:32:58.382Z,8.10
2023-04-13T15:35:27.222Z,8.10
2023-04-13T15:37:54.566Z,8.20
2023-04-13T15:40:22.953Z,8.10
2023-04-13T15:42:50.011Z,8.20
2023-04-13T15:45:17.025Z,8.20
2023-04-13T15:47:43.803Z,8.20
2023-04-13T15:50:11.299Z,8.20
2023-04-13T15:52:40.912Z,8.20
2023-04-13T15:55:08.509Z,8.30
2023-04-13T15:57:36.243Z,8.20
2023-04-13T16:00:08.583Z,8.20
2023-04-13T16:02:36.305Z,8.10
2023-04-13T16:05:03.726Z,8.10
2023-04-13T16:07:30.578Z,8.00
2023-04-13T16:09:58.291Z,7.90
2023-04-13T16:12:31.953Z,8.00
2023-04-13T16:14:59.555Z,8.00
2023-04-13T16:17:33.752Z,8.00
2023-04-13T16:20:14.440Z,8.00
2023-04-13T16:22:43.009Z,7.90
2023-04-13T16:25:11.270Z,7.90
2023-04-13T16:27:38.698Z,7.90
2023-04-13T16:30:07.974Z,7.80
2023-04-13T16:32:34.842Z,7.80
2023-04-13T16:35:02.065Z,7.80
2023-04-13T16:37:28.992Z,7.80
2023-04-13T16:39:56.055Z,7.80
2023-04-13T16:42:22.744Z,7.80
2023-04-13T16:44:49.555Z,7.80
2023-04-13T16:47:17.463Z,7.80
2023-04-13T16:49:44.206Z,7.80
2023-04-13T16:52:11.603Z,7.90
2023-04-13T16:54:46.239Z,7.90
2023-04-13T16:57:12.986Z,7.90
2023-04-13T16:59:39.859Z,7.90
2023-04-13T17:02:11.276Z,7.80
2023-04-13T17:04:42.220Z,7.80
2023-04-13T17:07:08.957Z,7.80
2023-04-13T17:09:35.949Z,7.80
2023-04-13T17:12:02.683Z,7.80
2023-04-13T17:14:29.476Z,7.70
2023-04-13T17:16:56.269Z,7.80
2023-04-13T17:19:23.543Z,7.80
2023-04-13T17:21:51.914Z,7.80
2023-04-13T17:24:18.574Z,7.70
2023-04-13T17:26:45.549Z,7.80
2023-04-13T17:29:12.307Z,7.80
2023-04-13T17:31:39.121Z,7.80
2023-04-13T17:34:05.811Z,7.80
2023-04-13T17:36:32.688Z,7.70
2023-04-13T17:38:59.735Z,7.70
2023-04-13T17:41:26.602Z,7.70
2023-04-13T17:43:53.314Z,7.60
2023-04-13T17:46:20.207Z,7.60
2023-04-13T17:48:47.002Z,7.60
2023-04-13T17:51:13.638Z,7.50
2023-04-13T17:53:40.314Z,7.50
2023-04-13T17:56:07.202Z,7.50
2023-04-13T17:58:35.219Z,7.50
2023-04-13T18:01:09.196Z,7.40
2023-04-13T18:03:36.809Z,7.50
2023-04-13T18:06:04.895Z,7.40
2023-04-13T18:08:31.958Z,7.50
2023-04-13T18:11:01.854Z,7.50
2023-04-13T18:13:28.919Z,7.50
2023-04-13T18:15:56.101Z,7.50
2023-04-13T18:18:25.699Z,7.40
2023-04-13T18:20:52.946Z,7.30
2023-04-13T18:23:21.362Z,7.00
2023-04-13T18:25:49.087Z,6.80
2023-04-13T18:28:16.528Z,6.60
2023-04-13T18:30:44.517Z,6.50
2023-04-13T18:33:12.022Z,6.40
2023-04-13T18:35:48.100Z,6.40
2023-04-13T18:38:18.109Z,6.40
2023-04-13T18:40:45.807Z,6.30
2023-04-13T18:43:12.680Z,6.30
2023-04-13T18:45:39.359Z,6.40
2023-04-13T18:48:07.269Z,6.50
2023-04-13T18:50:34.094Z,6.50
2023-04-13T18:53:00.799Z,6.60
2023-04-13T18:55:28.597Z,6.50
2023-04-13T18:57:56.267Z,6.50
2023-04-13T19:00:24.018Z,6.40
2023-04-13T19:02:57.215Z,6.40
2023-04-13T19:05:24.411Z,6.40
2023-04-13T19:07:59.471Z,6.30
2023-04-13T19:10:28.030Z,6.30
2023-04-13T19:12:56.228Z,6.30
2023-04-13T19:15:23.906Z,6.30
2023-04-13T19:17:52.273Z,6.20
2023-04-13T19:20:21.920Z,6.20
2023-04-13T19:22:48.674Z,6.10
2023-04-13T19:25:15.689Z,6.10
2023-04-13T19:27:46.456Z,6.00
2023-04-13T19:30:14.718Z,5.90
2023-04-13T19:32:43.022Z,5.90
2023-04-13T19:35:10.860Z,5.90
2023-04-13T19:37:38.083Z,5.80
2023-04-13T19:40:26.137Z,5.90
2023-04-13T19:42:52.958Z,5.90
2023-04-13T19:45:19.920Z,6.00
2023-04-13T19:47:46.746Z,5.90
2023-04-13T19:50:15.158Z,6.00
2023-04-13T19:52:42.479Z,6.00
2023-04-13T19:55:12.849Z,6.10
2023-04-13T19:57:43.058Z,6.00
2023-04-13T20:00:17.390Z,5.90
2023-04-13T20:02:46.873Z,5.90
2023-04-13T20:05:14.668Z,5.90
2023-04-13T20:07:42.031Z,5.90
2023-04-13T20:10:12.213Z,5.80
2023-04-13T20:12:39.248Z,5.80
2023-04-13T20:15:06.999Z,5.80
2023-04-13T20:17:33.909Z,5.70
2023-04-13T20:20:00.843Z,5.70
2023-04-13T20:22:28.029Z,5.70
2023-04-13T20:24:55.117Z,5.70
2023-04-13T20:27:22.753Z,5.70
2023-04-13T20:29:51.559Z,5.70
2023-04-13T20:32:18.635Z,5.70
2023-04-13T20:34:45.399Z,5.60
2023-04-13T20:37:14.289Z,5.70
2023-04-13T20:39:50.650Z,5.70
2023-04-13T20:42:19.955Z,5.70
2023-04-13T20:44:47.476Z,5.70
2023-04-13T20:47:14.538Z,5.60
2023-04-13T20:49:51.857Z,5.60
2023-04-13T20:52:19.887Z,5.60
2023-04-13T20:54:46.665Z,5.60
2023-04-13T20:57:13.630Z,5.60
2023-04-13T20:59:40.811Z,5.60
2023-04-13T21:02:09.028Z,5.60
2023-04-13T21:04:36.502Z,5.60
2023-04-13T21:07:04.085Z,5.60
2023-04-13T21:09:30.827Z,5.60
2023-04-13T21:11:58.278Z,5.60
2023-04-13T21:14:25.910Z,5.60
2023-04-13T21:16:53.057Z,5.60
2023-04-13T21:19:20.206Z,5.60
2023-04-13T21:21:47.177Z,5.60
2023-04-13T21:24:14.172Z,5.60
2023-04-13T21:26:41.310Z,5.60
2023-04-13T21:29:09.036Z,5.60
2023-04-13T21:31:35.970Z,5.60
2023-04-13T21:34:04.059Z,5.60
2023-04-13T21:39:02.667Z,5.50
2023-04-13T21:41:29.787Z,5.60
2023-04-13T21:43:56.533Z,5.50
2023-04-13T21:46:23.403Z,5.50
2023-04-13T21:48:50.348Z,5.40
2023-04-13T21:51:17.126Z,5.50
2023-04-13T21:53:43.820Z,5.40
2023-04-13T21:56:10.639Z,5.50
2023-04-13T21:58:39.914Z,5.50
2023-04-13T22:01:09.379Z,5.50
2023-04-13T22:03:37.914Z,5.50
2023-04-13T22:06:07.352Z,5.50
2023-04-13T22:08:34.619Z,5.50
2023-04-13T22:11:01.846Z,5.40
2023-04-13T22:13:28.888Z,5.40
2023-04-13T22:15:56.168Z,5.40
2023-04-13T22:18:23.267Z,5.40
2023-04-13T22:20:50.284Z,5.40
2023-04-13T22:23:17.135Z,5.30
2023-04-13T22:25:58.567Z,5.40
2023-04-13T22:28:28.740Z,5.20
2023-04-13T22:30:55.601Z,5.30
2023-04-13T22:33:22.755Z,5.30
2023-04-13T22:35:50.752Z,5.20
2023-04-13T22:38:18.500Z,5.30
2023-04-13T22:40:45.450Z,5.30
2023-04-13T22:43:12.470Z,5.30
2023-04-13T22:45:39.395Z,5.30
2023-04-13T22:48:06.589Z,5.40
2023-04-13T22:50:33.460Z,5.40
2023-04-13T22:53:00.228Z,5.40
2023-04-13T22:55:27.006Z,5.40
2023-04-13T22:57:53.859Z,5.40
2023-04-13T23:00:21.151Z,5.30
2023-04-13T23:02:50.326Z,5.30
2023-04-13T23:05:17.501Z,5.30
2023-04-13T23:07:44.324Z,5.30
2023-04-13T23:10:11.057Z,5.30
2023-04-13T23:12:37.817Z,5.30
2023-04-13T23:15:05.255Z,5.30
2023-04-13T23:17:32.080Z,5.20
2023-04-13T23:19:58.828Z,5.20
2023-04-13T23:22:25.813Z,5.20
2023-04-13T23:24:53.925Z,5.20
2023-04-13T23:27:20.917Z,5.10
2023-04-13T23:29:50.933Z,5.20
2023-04-13T23:32:17.725Z,5.20
2023-04-13T23:34:44.593Z,5.30
2023-04-13T23:37:11.475Z,5.20
2023-04-13T23:39:38.281Z,5.20
2023-04-13T23:42:05.191Z,5.20
2023-04-13T23:44:31.925Z,5.20
2023-04-13T23:46:58.551Z,5.20
2023-04-13T23:49:25.297Z,5.20
2023-04-13T23:51:52.218Z,5.20
2023-04-13T23:54:18.958Z,5.20
2023-04-13T23:56:45.699Z,5.10
2023-04-13T23:59:12.445Z,5.10
